West Palm Beach, FL (33401)

11:57 AM EST on December 05, 2016 (GMT -0500)
Downtown | | Change Station

Elev 0 ft 26.71 °N, 80.05 °W | Updated 10 minutes ago

Mostly Cloudy
Mostly Cloudy
83.3 °F
Feels Like 84 °F
N
0.6
Wind Variable Wind from SW
Gusts 1.9 mph

Today
High -- | Low -- °F
--% Chance of Precip.
Yesterday
High -- | Low -- °F
Precip. -- in
Pressure 30.01 in
Visibility 10.0 miles
Clouds Scattered Clouds 2300 ft
Mostly Cloudy 2800 ft
Mostly Cloudy 3800 ft
Heat Index 84 °F
Dew Point 64 °F
Humidity 51%
Rainfall Not available.
Snow Depth Not available.
6:54 AM 5:27 PM
Waxing Crescent, 33% visible
METAR KPBI 051653Z 15017G21KT 10SM SCT023 BKN028 BKN038 27/22 A3002 RMK AO2 SLP163 T02720217
Pressure 30.01 in
Visibility 10.0 miles
Clouds Scattered Clouds 2300 ft
Mostly Cloudy 2800 ft
Mostly Cloudy 3800 ft
Heat Index 84 °F
Dew Point 64 °F
Humidity 51%
Rainfall Not available.
Snow Depth Not available.
6:54 AM 5:27 PM
Waxing Crescent, 33% visible
METAR KPBI 051653Z 15017G21KT 10SM SCT023 BKN028 BKN038 27/22 A3002 RMK AO2 SLP163 T02720217

10-Day Weather Forecast

Almanac

Astronomy

Dec. 05, 2016 Rise Set
Actual Time
Civil Twilight
Nautical Twilight
Astronomical Twilight
Moon
Length of Visible Light
Length of Day
Tomorrow will be .
, % of the Moon is Illuminated

Today's Extremes

State Highs State Lows

Community

WunderPhotos

Upload Photos

1,955,833 photos uploaded!

WunderBlog® & News

Nearby

Air Quality

  Air Quality AQ Index Pollutant
Not available.

Snow Depth

Station Depth Elevation

Earthquake Activity

City Distance Mag. Time & Date
Minimum magnitude displayed is 2.5.

Coastal Water Temperatures

Place Temperature

Stations

Nearby Weather Stations

Station Location Temp. Windchill Dew Point Humidity Wind Precip. Elev Updated Type
                   

Watches & Warnings

There are currently no watches in effect.